Time;durP1;ratioP1;P1;durP2;ratioP2;P2;SDS_P1;SDS_P2;PMS_P1;PMS_P2;Temp;Humidity;BMP_temperature;BMP_pressure;BME280_temperature;BME280_humidity;BME280_pressure;Samples;Min_cycle;Max_cycle;Signal;HPM_P1;HPM_P2
2020/12/24 00:00:45;;;;;;;3.30;3.00;;;;;;;;;;2089207;28;20573;-57
2020/12/24 00:01:46;;;;;;;4.68;2.30;;;;;;;;;;2089810;28;20187;-57
2020/12/24 00:02:46;;;;;;;3.78;2.28;;;;;;;;;;2089033;28;20188;-55
2020/12/24 00:03:46;;;;;;;2.45;2.25;;;;;;;;;;2090361;28;20171;-57
2020/12/24 00:04:47;;;;;;;2.72;2.00;;;;;;;;;;2080633;28;20176;-56
2020/12/24 00:05:47;;;;;;;3.17;2.22;;;;;;;;;;2072885;28;20237;-58
2020/12/24 00:06:47;;;;;;;3.80;2.42;;;;;;;;;;2080602;28;20200;-60
2020/12/24 00:07:48;;;;;;;5.22;2.40;;;;;;;;;;2080143;28;20672;-58
2020/12/24 00:08:48;;;;;;;2.17;1.90;;;;;;;;;;2070058;28;20185;-58
2020/12/24 00:09:48;;;;;;;4.95;2.55;;;;;;;;;;2072099;28;20680;-57
2020/12/24 00:10:49;;;;;;;4.05;1.85;;;;;;;;;;2080245;28;20571;-59
2020/12/24 00:11:49;;;;;;;2.78;2.55;;;;;;;;;;2087969;28;21186;-58
2020/12/24 00:12:50;;;;;;;3.05;2.70;;;;;;;;;;2090075;28;20186;-57
2020/12/24 00:13:50;;;;;;;4.53;2.60;;;;;;;;;;2089254;28;20643;-57
2020/12/24 00:14:50;;;;;;;4.10;3.03;;;;;;;;;;2089868;28;20266;-57
2020/12/24 00:15:50;;;;;;;3.53;3.13;;;;;;;;;;2081477;28;20664;-57
2020/12/24 00:16:51;;;;;;;4.22;2.90;;;;;;;;;;2081700;28;20652;-59
2020/12/24 00:17:51;;;;;;;3.13;2.40;;;;;;;;;;2080247;28;20176;-58
2020/12/24 00:18:51;;;;;;;2.75;2.55;;;;;;;;;;2080485;28;20172;-55
2020/12/24 00:19:52;;;;;;;2.22;2.13;;;;;;;;;;2081271;28;20254;-62
2020/12/24 00:20:52;;;;;;;3.50;2.15;;;;;;;;;;2079901;28;20200;-57
2020/12/24 00:21:53;;;;;;;3.05;2.17;;;;;;;;;;2073383;28;20193;-56
2020/12/24 00:22:53;;;;;;;4.47;2.47;;;;;;;;;;2071727;28;20192;-59
2020/12/24 00:23:53;;;;;;;3.30;2.30;;;;;;;;;;2080264;28;20182;-57
2020/12/24 00:24:54;;;;;;;3.17;2.30;;;;;;;;;;2088941;28;20210;-57
2020/12/24 00:25:54;;;;;;;2.10;2.00;;;;;;;;;;2088414;28;20183;-57
2020/12/24 00:26:54;;;;;;;2.20;2.00;;;;;;;;;;2071302;28;20208;-57
2020/12/24 00:27:55;;;;;;;3.50;2.45;;;;;;;;;;2055335;28;20264;-58
2020/12/24 00:28:55;;;;;;;2.00;1.90;;;;;;;;;;2073934;28;20331;-55
2020/12/24 00:29:55;;;;;;;3.00;2.00;;;;;;;;;;2093285;28;20192;-58
2020/12/24 00:30:56;;;;;;;2.00;1.90;;;;;;;;;;2094476;28;20203;-61
2020/12/24 00:31:56;;;;;;;2.58;2.00;;;;;;;;;;2086886;28;20183;-59
2020/12/24 00:32:56;;;;;;;2.30;1.90;;;;;;;;;;2086584;28;20212;-57
2020/12/24 00:33:56;;;;;;;2.42;2.33;;;;;;;;;;2091664;28;20229;-58
2020/12/24 00:34:57;;;;;;;2.63;2.42;;;;;;;;;;2090024;28;20636;-58
2020/12/24 00:35:57;;;;;;;2.03;1.80;;;;;;;;;;2090901;28;20795;-58
2020/12/24 00:36:58;;;;;;;5.00;1.85;;;;;;;;;;2081362;28;20691;-58
2020/12/24 00:37:58;;;;;;;2.20;1.80;;;;;;;;;;2072851;28;20169;-58
2020/12/24 00:38:58;;;;;;;2.25;1.98;;;;;;;;;;2080816;28;20195;-58
2020/12/24 00:39:58;;;;;;;2.10;1.90;;;;;;;;;;2089745;28;20207;-60
2020/12/24 00:40:59;;;;;;;2.05;1.90;;;;;;;;;;2070345;28;20219;-58
2020/12/24 00:41:59;;;;;;;5.95;2.47;;;;;;;;;;2073760;28;20189;-58
2020/12/24 00:42:59;;;;;;;2.92;2.17;;;;;;;;;;2081710;28;20176;-57
2020/12/24 00:44:00;;;;;;;2.40;2.20;;;;;;;;;;2078831;28;20197;-60
2020/12/24 00:45:00;;;;;;;4.13;1.98;;;;;;;;;;2082115;28;20203;-54
2020/12/24 00:46:00;;;;;;;2.38;2.28;;;;;;;;;;2083211;28;20231;-57
2020/12/24 00:47:00;;;;;;;1.88;1.65;;;;;;;;;;2071434;28;20651;-57
2020/12/24 00:48:01;;;;;;;2.22;1.95;;;;;;;;;;2073349;28;20557;-58
2020/12/24 00:49:01;;;;;;;1.90;1.63;;;;;;;;;;2079843;28;20172;-56
2020/12/24 00:50:02;;;;;;;3.40;2.00;;;;;;;;;;2071336;28;20197;-58
2020/12/24 00:51:03;;;;;;;2.65;1.70;;;;;;;;;;2065365;28;20186;-56
2020/12/24 00:52:04;;;;;;;1.80;1.70;;;;;;;;;;2073294;28;20173;-58
2020/12/24 00:53:04;;;;;;;2.05;1.58;;;;;;;;;;2065056;28;20561;-56
2020/12/24 00:54:07;;;;;;;2.30;2.08;;;;;;;;;;2063293;28;20701;-57
2020/12/24 00:55:07;;;;;;;1.95;1.75;;;;;;;;;;2072045;28;20181;-57
2020/12/24 00:56:10;;;;;;;3.33;1.80;;;;;;;;;;2081377;28;20172;-57
2020/12/24 00:57:13;;;;;;;2.72;1.45;;;;;;;;;;2078724;28;20188;-59
2020/12/24 00:58:14;;;;;;;3.65;2.20;;;;;;;;;;2073084;28;20603;-58
2020/12/24 00:59:14;;;;;;;1.70;1.58;;;;;;;;;;2072380;28;20185;-57
2020/12/24 01:00:14;;;;;;;4.50;1.92;;;;;;;;;;2079116;28;20196;-56
2020/12/24 01:01:15;;;;;;;2.83;2.03;;;;;;;;;;2088121;28;20418;-57
2020/12/24 01:02:15;;;;;;;1.60;1.50;;;;;;;;;;2089620;28;20176;-57
2020/12/24 01:03:15;;;;;;;3.70;1.85;;;;;;;;;;2074398;28;20193;-58
2020/12/24 01:04:16;;;;;;;3.03;2.25;;;;;;;;;;2064182;28;20185;-56
2020/12/24 01:05:16;;;;;;;3.75;1.98;;;;;;;;;;2080787;28;20210;-57
2020/12/24 01:06:16;;;;;;;2.80;2.38;;;;;;;;;;2091976;28;20175;-57
2020/12/24 01:07:16;;;;;;;3.83;2.40;;;;;;;;;;2091000;28;20176;-55
2020/12/24 01:08:17;;;;;;;2.33;1.92;;;;;;;;;;2078860;28;20215;-57
2020/12/24 01:09:17;;;;;;;4.68;2.20;;;;;;;;;;2082484;28;20181;-58
2020/12/24 01:10:17;;;;;;;2.65;2.45;;;;;;;;;;2091012;28;20266;-56
2020/12/24 01:11:18;;;;;;;3.42;2.60;;;;;;;;;;2090606;28;20254;-56
2020/12/24 01:12:18;;;;;;;4.30;2.42;;;;;;;;;;2081519;28;20172;-56
2020/12/24 01:13:18;;;;;;;4.60;2.60;;;;;;;;;;2074508;28;20302;-58
2020/12/24 01:14:18;;;;;;;3.55;2.10;;;;;;;;;;2073212;28;20192;-59
2020/12/24 01:15:19;;;;;;;2.60;2.40;;;;;;;;;;2074433;28;20673;-59
2020/12/24 01:16:19;;;;;;;3.53;2.97;;;;;;;;;;2090976;28;20670;-56
2020/12/24 01:17:19;;;;;;;4.25;2.83;;;;;;;;;;2079575;28;20193;-58
2020/12/24 01:18:20;;;;;;;3.88;3.00;;;;;;;;;;2081248;28;20192;-55
2020/12/24 01:19:20;;;;;;;4.93;2.40;;;;;;;;;;2087997;28;20172;-57
2020/12/24 01:20:20;;;;;;;4.78;2.97;;;;;;;;;;2095783;23;20227;-58
2020/12/24 01:21:20;;;;;;;2.58;2.35;;;;;;;;;;2084419;28;20190;-53
2020/12/24 01:22:21;;;;;;;6.03;2.63;;;;;;;;;;2084673;28;20203;-51
2020/12/24 01:23:21;;;;;;;6.65;2.42;;;;;;;;;;2085295;28;20623;-51
2020/12/24 01:24:21;;;;;;;5.25;2.90;;;;;;;;;;2085428;28;20286;-55
2020/12/24 01:25:21;;;;;;;3.70;2.85;;;;;;;;;;2086023;28;20314;-51
2020/12/24 01:26:22;;;;;;;4.97;2.83;;;;;;;;;;2086177;28;20233;-55
2020/12/24 01:27:22;;;;;;;4.28;2.78;;;;;;;;;;2083853;28;20223;-54
2020/12/24 01:28:22;;;;;;;4.00;2.85;;;;;;;;;;2085228;28;20548;-58
2020/12/24 01:29:23;;;;;;;7.93;2.67;;;;;;;;;;2087278;28;20539;-57
2020/12/24 01:30:23;;;;;;;5.03;2.83;;;;;;;;;;2085156;28;20200;-59
2020/12/24 01:31:23;;;;;;;4.20;2.90;;;;;;;;;;2087523;28;20224;-54
2020/12/24 01:32:23;;;;;;;5.40;2.20;;;;;;;;;;2088801;28;20184;-56
2020/12/24 01:33:24;;;;;;;3.55;2.70;;;;;;;;;;2086015;28;20243;-54
2020/12/24 01:34:25;;;;;;;3.08;2.13;;;;;;;;;;2082653;28;20191;-55
2020/12/24 01:35:25;;;;;;;3.55;2.47;;;;;;;;;;2087755;28;20196;-55
2020/12/24 01:36:25;;;;;;;3.22;2.85;;;;;;;;;;2083143;28;20172;-52
2020/12/24 01:37:25;;;;;;;4.38;2.70;;;;;;;;;;2078433;28;20173;-51
2020/12/24 01:38:26;;;;;;;2.88;2.67;;;;;;;;;;2074981;28;20199;-51
2020/12/24 01:39:26;;;;;;;4.50;2.70;;;;;;;;;;2084150;28;20271;-55
2020/12/24 01:40:26;;;;;;;5.82;3.25;;;;;;;;;;2082440;28;20200;-56
2020/12/24 01:41:26;;;;;;;13.25;3.72;;;;;;;;;;2089423;28;20195;-53
2020/12/24 01:42:27;;;;;;;6.32;2.70;;;;;;;;;;2088126;28;20175;-53
2020/12/24 01:43:27;;;;;;;5.35;2.60;;;;;;;;;;2082482;28;20203;-50
2020/12/24 01:44:28;;;;;;;3.45;2.50;;;;;;;;;;2083046;28;20199;-50
2020/12/24 01:45:28;;;;;;;5.75;2.38;;;;;;;;;;2086752;28;20547;-50
2020/12/24 01:46:28;;;;;;;2.72;2.28;;;;;;;;;;2084900;28;20555;-53
2020/12/24 01:47:28;;;;;;;2.80;2.60;;;;;;;;;;2086439;28;20192;-54
2020/12/24 01:48:29;;;;;;;4.68;2.88;;;;;;;;;;2087303;28;20167;-53
2020/12/24 01:49:29;;;;;;;5.30;3.40;;;;;;;;;;2084626;28;20183;-53
2020/12/24 01:50:29;;;;;;;2.65;2.35;;;;;;;;;;2084698;28;20275;-50
2020/12/24 01:51:30;;;;;;;3.17;2.95;;;;;;;;;;2084240;28;20191;-53
2020/12/24 01:52:32;;;;;;;5.20;2.90;;;;;;;;;;2082659;28;20206;-55
2020/12/24 01:53:33;;;;;;;3.53;2.88;;;;;;;;;;2078678;28;20648;-50
2020/12/24 01:54:33;;;;;;;3.78;3.10;;;;;;;;;;2078027;28;20302;-51
2020/12/24 01:55:34;;;;;;;3.40;3.10;;;;;;;;;;2082402;28;20180;-51
2020/12/24 01:56:34;;;;;;;6.25;3.40;;;;;;;;;;2080834;28;20173;-50
2020/12/24 01:57:35;;;;;;;6.45;3.67;;;;;;;;;;2084489;28;20171;-52
2020/12/24 01:58:35;;;;;;;3.35;2.83;;;;;;;;;;2086230;28;20236;-53
2020/12/24 01:59:35;;;;;;;4.50;3.27;;;;;;;;;;2083136;28;20657;-56
2020/12/24 02:00:35;;;;;;;5.68;3.55;;;;;;;;;;2083245;28;20204;-53
2020/12/24 02:01:36;;;;;;;4.75;3.08;;;;;;;;;;2072676;28;20164;-52
2020/12/24 02:02:36;;;;;;;5.83;3.60;;;;;;;;;;2076267;28;20550;-49
2020/12/24 02:03:36;;;;;;;5.65;3.60;;;;;;;;;;2086826;28;20235;-51
2020/12/24 02:04:36;;;;;;;7.25;3.53;;;;;;;;;;2072488;28;20181;-50
2020/12/24 02:05:37;;;;;;;4.90;3.80;;;;;;;;;;2078395;28;20568;-53
2020/12/24 02:06:38;;;;;;;4.30;4.00;;;;;;;;;;2081641;28;20556;-49
2020/12/24 02:07:38;;;;;;;5.70;3.85;;;;;;;;;;2076222;28;20185;-49
2020/12/24 02:08:39;;;;;;;6.73;3.77;;;;;;;;;;2079293;28;20195;-51
2020/12/24 02:09:39;;;;;;;3.35;3.00;;;;;;;;;;2082145;28;20175;-52
2020/12/24 02:10:39;;;;;;;4.47;3.30;;;;;;;;;;2084223;28;20245;-50
2020/12/24 02:11:40;;;;;;;5.47;3.40;;;;;;;;;;2082853;28;20194;-50
2020/12/24 02:12:40;;;;;;;3.90;3.55;;;;;;;;;;2084418;28;20184;-51
2020/12/24 02:13:41;;;;;;;4.45;4.05;;;;;;;;;;2080398;28;20256;-50
2020/12/24 02:14:41;;;;;;;5.75;3.42;;;;;;;;;;2080459;28;20293;-52
2020/12/24 02:15:41;;;;;;;6.13;3.20;;;;;;;;;;2083119;28;20711;-53
2020/12/24 02:16:41;;;;;;;6.40;4.07;;;;;;;;;;2081218;28;20168;-50
2020/12/24 02:17:42;;;;;;;3.15;2.97;;;;;;;;;;2084158;28;20263;-50
2020/12/24 02:18:42;;;;;;;3.33;3.03;;;;;;;;;;2082031;28;20183;-52
2020/12/24 02:19:42;;;;;;;3.73;3.37;;;;;;;;;;2081971;28;20191;-54
2020/12/24 02:20:43;;;;;;;5.78;3.45;;;;;;;;;;2084040;28;20514;-52
2020/12/24 02:21:44;;;;;;;4.55;3.30;;;;;;;;;;2084892;28;20178;-53
2020/12/24 02:22:44;;;;;;;5.18;3.45;;;;;;;;;;2075734;28;20559;-51
2020/12/24 02:23:44;;;;;;;4.07;2.95;;;;;;;;;;2073157;28;20169;-51
2020/12/24 02:24:44;;;;;;;3.88;3.55;;;;;;;;;;2071698;28;20189;-50
2020/12/24 02:25:45;;;;;;;5.97;3.38;;;;;;;;;;2075210;28;20250;-55
2020/12/24 02:26:45;;;;;;;3.55;3.25;;;;;;;;;;2071057;28;20219;-52
2020/12/24 02:27:45;;;;;;;4.80;2.92;;;;;;;;;;2083956;28;20184;-49
2020/12/24 02:28:46;;;;;;;3.58;2.88;;;;;;;;;;2080396;28;20654;-51
2020/12/24 02:29:46;;;;;;;3.13;2.88;;;;;;;;;;2082017;28;20208;-52
2020/12/24 02:30:46;;;;;;;5.63;2.75;;;;;;;;;;2075165;28;20177;-54
2020/12/24 02:31:46;;;;;;;2.40;2.25;;;;;;;;;;2076434;28;20189;-50
2020/12/24 02:32:47;;;;;;;4.13;3.10;;;;;;;;;;2081251;28;20180;-51
2020/12/24 02:33:47;;;;;;;3.23;2.93;;;;;;;;;;2080999;28;20241;-49
2020/12/24 02:34:47;;;;;;;3.13;2.78;;;;;;;;;;2078975;28;20200;-54
2020/12/24 02:35:48;;;;;;;3.28;2.78;;;;;;;;;;2087433;28;20179;-51
2020/12/24 02:36:48;;;;;;;4.88;2.75;;;;;;;;;;2082730;28;20254;-52
2020/12/24 02:37:48;;;;;;;3.03;2.80;;;;;;;;;;2081127;28;20176;-54
2020/12/24 02:38:49;;;;;;;3.15;2.80;;;;;;;;;;2084208;28;20203;-52
2020/12/24 02:39:52;;;;;;;4.47;2.88;;;;;;;;;;2083458;28;20192;-49
2020/12/24 02:40:52;;;;;;;3.57;2.50;;;;;;;;;;2081570;28;20180;-50
2020/12/24 02:41:53;;;;;;;3.33;2.67;;;;;;;;;;2085135;28;20183;-52
2020/12/24 02:42:53;;;;;;;3.30;2.97;;;;;;;;;;2075775;28;20177;-52
2020/12/24 02:43:53;;;;;;;3.20;3.00;;;;;;;;;;2086551;28;20199;-49
2020/12/24 02:44:53;;;;;;;2.60;2.30;;;;;;;;;;2083363;28;20585;-50
2020/12/24 02:45:54;;;;;;;3.22;2.63;;;;;;;;;;2075730;28;20203;-53
2020/12/24 02:46:54;;;;;;;3.78;3.03;;;;;;;;;;2075615;28;20196;-52
2020/12/24 02:47:54;;;;;;;4.78;3.40;;;;;;;;;;2081522;28;20214;-53
2020/12/24 02:48:55;;;;;;;3.38;2.92;;;;;;;;;;2081869;28;20262;-54
2020/12/24 02:49:55;;;;;;;2.70;2.50;;;;;;;;;;2078122;28;20203;-52
2020/12/24 02:50:55;;;;;;;3.80;3.07;;;;;;;;;;2071879;28;20224;-52
2020/12/24 02:51:55;;;;;;;5.00;3.20;;;;;;;;;;2073428;28;20192;-50
2020/12/24 02:52:56;;;;;;;4.30;3.33;;;;;;;;;;2076952;28;20267;-52
2020/12/24 02:53:56;;;;;;;3.37;3.10;;;;;;;;;;2068952;28;20245;-49
2020/12/24 02:54:56;;;;;;;3.10;2.90;;;;;;;;;;2072955;28;20570;-51
2020/12/24 02:55:56;;;;;;;4.20;3.38;;;;;;;;;;2074064;28;20219;-52
2020/12/24 02:56:59;;;;;;;3.03;2.83;;;;;;;;;;2071209;28;20186;-51
2020/12/24 02:57:59;;;;;;;3.60;3.10;;;;;;;;;;2078967;28;20169;-51
2020/12/24 02:58:59;;;;;;;3.72;3.08;;;;;;;;;;2079405;28;20632;-50
2020/12/24 03:00:04;;;;;;;4.05;3.60;;;;;;;;;;2071945;28;20231;-49
2020/12/24 03:01:04;;;;;;;5.05;3.55;;;;;;;;;;2073106;28;20256;-51
2020/12/24 03:02:04;;;;;;;3.47;3.17;;;;;;;;;;2082569;28;20582;-49
2020/12/24 03:03:04;;;;;;;3.70;3.37;;;;;;;;;;2083052;28;20540;-49
2020/12/24 03:04:04;;;;;;;3.30;3.08;;;;;;;;;;2081401;28;20175;-50
2020/12/24 03:05:05;;;;;;;3.85;3.55;;;;;;;;;;2082606;28;20210;-51
2020/12/24 03:06:05;;;;;;;5.45;3.05;;;;;;;;;;2085397;28;20180;-50
2020/12/24 03:07:05;;;;;;;3.83;3.53;;;;;;;;;;2081915;28;20164;-57
2020/12/24 03:08:06;;;;;;;3.20;2.90;;;;;;;;;;2080367;28;20619;-53
2020/12/24 03:09:06;;;;;;;6.07;3.47;;;;;;;;;;2082945;28;20272;-50
2020/12/24 03:10:07;;;;;;;3.80;3.50;;;;;;;;;;2085002;28;20192;-49
2020/12/24 03:11:07;;;;;;;4.17;3.77;;;;;;;;;;2081503;28;20813;-51
2020/12/24 03:12:10;;;;;;;6.28;3.53;;;;;;;;;;2083367;28;20229;-53
2020/12/24 03:13:11;;;;;;;4.35;3.00;;;;;;;;;;2082636;28;20173;-49
2020/12/24 03:14:11;;;;;;;7.32;3.97;;;;;;;;;;2082114;28;20177;-50
2020/12/24 03:15:12;;;;;;;6.20;4.07;;;;;;;;;;2083475;28;20171;-49
2020/12/24 03:16:14;;;;;;;4.45;3.67;;;;;;;;;;2082570;28;20574;-51
2020/12/24 03:17:14;;;;;;;5.93;3.45;;;;;;;;;;2081383;28;20645;-53
2020/12/24 03:18:15;;;;;;;6.38;4.13;;;;;;;;;;2079357;28;20168;-49
2020/12/24 03:19:15;;;;;;;4.03;3.13;;;;;;;;;;2083880;28;20175;-51
2020/12/24 03:20:16;;;;;;;7.85;4.13;;;;;;;;;;2077444;28;20215;-50
2020/12/24 03:21:16;;;;;;;4.18;3.72;;;;;;;;;;2081544;28;20251;-52
2020/12/24 03:22:16;;;;;;;7.20;3.63;;;;;;;;;;2083483;28;20649;-51
2020/12/24 03:23:17;;;;;;;4.43;3.63;;;;;;;;;;2074487;28;20177;-47
2020/12/24 03:24:17;;;;;;;5.35;3.45;;;;;;;;;;2074092;28;20168;-51
2020/12/24 03:25:17;;;;;;;3.40;3.10;;;;;;;;;;2082763;28;20668;-49
2020/12/24 03:26:17;;;;;;;3.67;3.38;;;;;;;;;;2082317;28;20258;-55
2020/12/24 03:27:18;;;;;;;3.92;3.50;;;;;;;;;;2081290;28;20220;-53
2020/12/24 03:28:18;;;;;;;4.22;3.55;;;;;;;;;;2078327;28;20179;-49
2020/12/24 03:29:18;;;;;;;7.85;4.10;;;;;;;;;;2081842;28;20172;-50
2020/12/24 03:30:19;;;;;;;3.78;3.45;;;;;;;;;;2083551;28;20208;-56
2020/12/24 03:31:21;;;;;;;5.87;4.67;;;;;;;;;;2078274;28;20180;-51
2020/12/24 03:32:21;;;;;;;4.60;3.55;;;;;;;;;;2084353;28;20190;-50
2020/12/24 03:33:21;;;;;;;4.43;3.80;;;;;;;;;;2079953;28;20651;-51
2020/12/24 03:34:22;;;;;;;3.97;3.50;;;;;;;;;;2070350;28;20193;-49
2020/12/24 03:35:22;;;;;;;4.13;3.22;;;;;;;;;;2074348;28;20184;-49
2020/12/24 03:36:22;;;;;;;6.22;3.72;;;;;;;;;;2077948;28;20192;-49
2020/12/24 03:37:22;;;;;;;8.50;4.13;;;;;;;;;;2078256;28;20167;-49
2020/12/24 03:38:23;;;;;;;11.18;4.18;;;;;;;;;;2078571;28;20242;-50
2020/12/24 03:39:23;;;;;;;5.25;3.63;;;;;;;;;;2076134;28;20255;-49
2020/12/24 03:40:23;;;;;;;7.53;3.73;;;;;;;;;;2063870;28;20197;-52
2020/12/24 03:41:23;;;;;;;5.40;4.03;;;;;;;;;;2072896;28;20264;-52
2020/12/24 03:42:24;;;;;;;6.33;2.83;;;;;;;;;;2074917;28;20193;-53
2020/12/24 03:43:24;;;;;;;6.78;3.10;;;;;;;;;;2072613;28;20184;-49
2020/12/24 03:44:25;;;;;;;3.67;2.47;;;;;;;;;;2080388;28;20229;-49
2020/12/24 03:45:25;;;;;;;11.43;3.77;;;;;;;;;;2082165;28;20546;-50
2020/12/24 03:46:25;;;;;;;8.32;3.05;;;;;;;;;;2083642;28;20184;-50
2020/12/24 03:47:25;;;;;;;5.50;3.13;;;;;;;;;;2083163;28;20648;-48
2020/12/24 03:48:25;;;;;;;6.93;2.78;;;;;;;;;;2079421;28;20216;-55
2020/12/24 03:49:26;;;;;;;4.18;2.67;;;;;;;;;;2079701;28;20571;-53
2020/12/24 03:50:26;;;;;;;9.65;3.08;;;;;;;;;;2074912;28;20212;-50
2020/12/24 03:51:26;;;;;;;6.00;3.00;;;;;;;;;;2063140;28;20177;-50
2020/12/24 03:52:26;;;;;;;8.20;2.95;;;;;;;;;;2072473;28;20621;-49
2020/12/24 03:53:27;;;;;;;8.17;2.70;;;;;;;;;;2081382;28;20730;-49
2020/12/24 03:54:27;;;;;;;6.13;3.13;;;;;;;;;;2081025;28;20215;-51
2020/12/24 03:55:28;;;;;;;5.65;2.13;;;;;;;;;;2081886;28;20180;-49
2020/12/24 03:56:28;;;;;;;8.07;2.88;;;;;;;;;;2083837;28;20262;-49
2020/12/24 03:57:28;;;;;;;8.17;3.20;;;;;;;;;;2079541;28;20230;-50
2020/12/24 03:58:29;;;;;;;7.60;2.80;;;;;;;;;;2079393;28;20179;-49
2020/12/24 03:59:29;;;;;;;13.03;3.40;;;;;;;;;;2079846;28;20640;-51
2020/12/24 04:00:29;;;;;;;5.95;2.72;;;;;;;;;;2080764;28;20204;-49
2020/12/24 04:01:29;;;;;;;7.35;3.13;;;;;;;;;;2083351;28;20190;-50
2020/12/24 04:02:30;;;;;;;4.37;3.10;;;;;;;;;;2078442;28;20173;-50
2020/12/24 04:03:30;;;;;;;6.60;2.67;;;;;;;;;;2072496;28;20204;-49
2020/12/24 04:04:30;;;;;;;4.30;2.50;;;;;;;;;;2069760;28;20684;-53
2020/12/24 04:05:30;;;;;;;5.23;2.67;;;;;;;;;;2085887;28;20176;-49
2020/12/24 04:06:30;;;;;;;2.70;2.03;;;;;;;;;;2075071;28;20544;-51
2020/12/24 04:07:31;;;;;;;4.47;2.00;;;;;;;;;;2081420;28;20180;-52
2020/12/24 04:08:31;;;;;;;3.33;1.85;;;;;;;;;;2079779;28;20203;-54
2020/12/24 04:09:31;;;;;;;5.25;2.53;;;;;;;;;;2082688;28;20188;-54
2020/12/24 04:10:32;;;;;;;5.40;2.65;;;;;;;;;;2081329;28;20561;-49
2020/12/24 04:11:32;;;;;;;5.63;2.75;;;;;;;;;;2083291;28;20193;-50
2020/12/24 04:12:32;;;;;;;6.30;2.35;;;;;;;;;;2083507;28;20210;-49
2020/12/24 04:13:32;;;;;;;6.68;2.35;;;;;;;;;;2082410;28;20611;-49
2020/12/24 04:14:33;;;;;;;5.68;2.25;;;;;;;;;;2080511;28;20204;-51
2020/12/24 04:15:33;;;;;;;5.72;2.13;;;;;;;;;;2081067;28;20532;-49
2020/12/24 04:16:33;;;;;;;1.92;1.67;;;;;;;;;;2083031;28;20175;-49
2020/12/24 04:17:33;;;;;;;3.60;1.80;;;;;;;;;;2080381;28;20234;-53
2020/12/24 04:18:34;;;;;;;6.00;1.88;;;;;;;;;;2081600;28;20547;-51
2020/12/24 04:19:34;;;;;;;2.35;2.00;;;;;;;;;;2085939;28;20198;-53
2020/12/24 04:20:34;;;;;;;5.22;1.98;;;;;;;;;;2077460;28;20270;-48
2020/12/24 04:21:34;;;;;;;7.68;2.30;;;;;;;;;;2081954;28;20187;-49
2020/12/24 04:22:35;;;;;;;5.13;2.25;;;;;;;;;;2083197;28;20179;-51
2020/12/24 04:23:35;;;;;;;3.10;2.07;;;;;;;;;;2082453;28;20593;-50
2020/12/24 04:24:35;;;;;;;4.13;1.80;;;;;;;;;;2084513;28;20610;-50
2020/12/24 04:25:35;;;;;;;3.13;2.08;;;;;;;;;;2079229;28;20648;-49
2020/12/24 04:26:35;;;;;;;3.30;1.90;;;;;;;;;;2081689;28;20192;-52
2020/12/24 04:27:36;;;;;;;3.78;1.98;;;;;;;;;;2077154;28;20169;-51
2020/12/24 04:28:36;;;;;;;4.72;1.98;;;;;;;;;;2085185;28;20190;-56
2020/12/24 04:29:36;;;;;;;8.90;2.50;;;;;;;;;;2066330;28;20235;-55
2020/12/24 04:30:36;;;;;;;6.82;2.30;;;;;;;;;;2074334;28;20627;-52
2020/12/24 04:31:43;;;;;;;2.87;2.57;;;;;;;;;;2079270;28;20571;-50
2020/12/24 04:32:43;;;;;;;3.93;3.20;;;;;;;;;;2083088;28;20230;-51
2020/12/24 04:33:44;;;;;;;4.60;4.20;;;;;;;;;;2082458;28;20183;-49
2020/12/24 04:34:44;;;;;;;4.23;3.93;;;;;;;;;;2078502;28;20213;-52
2020/12/24 04:35:44;;;;;;;4.33;3.93;;;;;;;;;;2082216;28;20164;-51
2020/12/24 04:36:48;;;;;;;5.30;3.67;;;;;;;;;;2084051;28;20237;-53
2020/12/24 04:37:49;;;;;;;4.60;4.20;;;;;;;;;;2082010;28;20176;-49
2020/12/24 04:38:49;;;;;;;4.60;4.20;;;;;;;;;;2086358;28;20277;-49
2020/12/24 04:39:49;;;;;;;3.43;3.13;;;;;;;;;;2084700;28;20238;-53
2020/12/24 04:40:50;;;;;;;3.03;2.50;;;;;;;;;;2083084;28;20183;-50
2020/12/24 04:41:52;;;;;;;3.07;2.87;;;;;;;;;;2085427;28;20176;-51
2020/12/24 04:42:53;;;;;;;2.33;2.23;;;;;;;;;;2084618;28;20551;-50
2020/12/24 04:43:53;;;;;;;2.43;2.33;;;;;;;;;;2081169;28;20546;-53
2020/12/24 04:44:53;;;;;;;3.87;2.27;;;;;;;;;;2079626;28;20184;-52
2020/12/24 04:45:54;;;;;;;3.47;3.00;;;;;;;;;;2081184;28;20606;-53
2020/12/24 04:46:55;;;;;;;3.43;2.97;;;;;;;;;;2084193;28;20172;-51
2020/12/24 04:47:57;;;;;;;3.03;2.80;;;;;;;;;;2086487;28;20192;-54
2020/12/24 04:48:58;;;;;;;3.67;3.37;;;;;;;;;;2083313;28;20184;-52
2020/12/24 04:49:59;;;;;;;3.53;3.30;;;;;;;;;;2083003;28;20191;-53
2020/12/24 04:51:00;;;;;;;3.40;3.20;;;;;;;;;;2083040;28;20192;-53
2020/12/24 04:52:01;;;;;;;3.90;3.43;;;;;;;;;;2082633;28;20176;-50
2020/12/24 04:53:01;;;;;;;3.60;3.30;;;;;;;;;;2085542;28;20216;-51
2020/12/24 04:54:01;;;;;;;4.10;3.70;;;;;;;;;;2080635;28;20189;-51
2020/12/24 04:55:03;;;;;;;4.23;3.90;;;;;;;;;;2080597;28;20169;-53
2020/12/24 04:56:05;;;;;;;4.00;3.70;;;;;;;;;;2081879;28;20179;-53
2020/12/24 04:57:07;;;;;;;4.33;4.03;;;;;;;;;;2073213;28;20280;-56
2020/12/24 04:58:08;;;;;;;4.13;3.73;;;;;;;;;;2075678;28;20185;-50
2020/12/24 04:59:09;;;;;;;4.00;3.60;;;;;;;;;;2080258;28;20264;-50
2020/12/24 05:00:10;;;;;;;3.70;3.40;;;;;;;;;;2072924;28;20267;-50
2020/12/24 05:01:14;;;;;;;4.53;4.23;;;;;;;;;;2075320;28;20244;-53
2020/12/24 05:02:14;;;;;;;3.90;3.57;;;;;;;;;;2079768;28;20260;-51
2020/12/24 05:03:15;;;;;;;4.10;3.80;;;;;;;;;;2085013;28;20761;-51
2020/12/24 05:04:19;;;;;;;3.63;3.33;;;;;;;;;;2082843;28;20156;-51
2020/12/24 05:05:19;;;;;;;4.23;3.93;;;;;;;;;;2083022;28;20184;-50
2020/12/24 05:06:19;;;;;;;4.30;3.93;;;;;;;;;;2080707;28;20202;-50
2020/12/24 05:07:20;;;;;;;3.53;3.30;;;;;;;;;;2084376;28;20172;-50
2020/12/24 05:08:20;;;;;;;3.73;3.47;;;;;;;;;;2082964;28;20558;-53
2020/12/24 05:09:23;;;;;;;3.23;2.93;;;;;;;;;;2085513;28;21006;-51
2020/12/24 05:10:23;;;;;;;3.70;3.23;;;;;;;;;;2082289;28;20202;-52
2020/12/24 05:11:24;;;;;;;3.17;2.97;;;;;;;;;;2087421;28;20203;-53
2020/12/24 05:12:32;;;;;;;2.63;2.53;;;;;;;;;;2078951;28;20598;-50
2020/12/24 05:13:32;;;;;;;2.50;2.40;;;;;;;;;;2074718;28;20172;-49
2020/12/24 05:14:33;;;;;;;2.33;2.20;;;;;;;;;;2075950;28;20208;-51
2020/12/24 05:15:33;;;;;;;2.50;2.40;;;;;;;;;;2082204;28;20223;-53
2020/12/24 05:16:33;;;;;;;1.83;1.73;;;;;;;;;;2080676;28;20176;-52
2020/12/24 05:17:33;;;;;;;2.43;2.33;;;;;;;;;;2082947;28;20176;-52
2020/12/24 05:18:34;;;;;;;3.03;2.27;;;;;;;;;;2080462;28;20164;-51
2020/12/24 05:19:35;;;;;;;2.17;2.07;;;;;;;;;;2084828;28;20644;-51
2020/12/24 05:20:39;;;;;;;2.47;2.37;;;;;;;;;;2082850;28;20271;-50
2020/12/24 05:21:39;;;;;;;2.20;2.10;;;;;;;;;;2085292;28;20172;-54
2020/12/24 05:22:40;;;;;;;2.33;2.23;;;;;;;;;;2086248;28;20169;-52
2020/12/24 05:23:40;;;;;;;2.47;2.37;;;;;;;;;;2082593;28;20653;-52
2020/12/24 05:24:40;;;;;;;2.40;2.30;;;;;;;;;;2085033;28;20232;-52
2020/12/24 05:25:41;;;;;;;2.80;2.60;;;;;;;;;;2080067;28;20203;-50
2020/12/24 05:26:41;;;;;;;2.60;2.40;;;;;;;;;;2082553;28;20191;-52
2020/12/24 05:27:41;;;;;;;2.60;2.40;;;;;;;;;;2081576;28;20547;-50
2020/12/24 05:28:42;;;;;;;2.67;2.50;;;;;;;;;;2084119;28;20648;-56
2020/12/24 05:29:43;;;;;;;2.47;2.27;;;;;;;;;;2080790;28;20565;-55
2020/12/24 05:30:43;;;;;;;2.40;2.20;;;;;;;;;;2079185;28;20210;-50
2020/12/24 05:31:43;;;;;;;2.57;2.40;;;;;;;;;;2082639;28;20183;-51
2020/12/24 05:32:44;;;;;;;2.33;2.20;;;;;;;;;;2087208;28;20198;-50
2020/12/24 05:33:51;;;;;;;2.47;2.37;;;;;;;;;;2084828;28;20176;-57
2020/12/24 05:35:00;;;;;;;2.30;2.20;;;;;;;;;;2075847;28;20207;-49
2020/12/24 05:36:20;;;;;;;2.40;1.90;;;;;;;;;;2076824;28;20177;-50
2020/12/24 05:37:23;;;;;;;2.10;2.00;;;;;;;;;;2080253;28;20579;-54
2020/12/24 05:38:31;;;;;;;2.10;2.00;;;;;;;;;;2082038;28;20218;-50
2020/12/24 05:39:31;;;;;;;2.33;2.23;;;;;;;;;;2084046;28;20191;-51
2020/12/24 05:40:32;;;;;;;2.10;2.00;;;;;;;;;;2083411;28;20204;-53
2020/12/24 05:41:36;;;;;;;2.20;2.10;;;;;;;;;;2080062;28;20195;-53
2020/12/24 05:42:46;;;;;;;2.33;2.13;;;;;;;;;;2082842;28;20568;-52
2020/12/24 05:43:53;;;;;;;2.30;2.20;;;;;;;;;;2084130;28;20242;-54
2020/12/24 05:44:53;;;;;;;2.00;1.90;;;;;;;;;;2081551;28;20177;-50
2020/12/24 05:46:01;;;;;;;2.33;2.23;;;;;;;;;;2088735;28;20196;-51
2020/12/24 05:47:02;;;;;;;2.40;2.30;;;;;;;;;;2083240;28;20177;-53
2020/12/24 05:48:12;;;;;;;2.20;2.10;;;;;;;;;;2086302;28;20180;-51
2020/12/24 05:49:17;;;;;;;2.20;2.10;;;;;;;;;;2072037;28;20189;-50
2020/12/24 05:50:24;;;;;;;1.90;1.80;;;;;;;;;;2064263;28;20204;-56
2020/12/24 05:51:24;;;;;;;3.07;2.77;;;;;;;;;;2075326;28;20232;-50
2020/12/24 05:52:24;;;;;;;2.40;2.23;;;;;;;;;;2080718;28;20189;-50
2020/12/24 05:53:25;;;;;;;2.57;2.37;;;;;;;;;;2080715;28;20548;-51
2020/12/24 05:54:26;;;;;;;2.77;2.63;;;;;;;;;;2084998;28;20306;-52
2020/12/24 05:55:26;;;;;;;3.00;2.80;;;;;;;;;;2071577;28;20173;-51
2020/12/24 05:56:26;;;;;;;2.40;2.20;;;;;;;;;;2073535;28;20252;-52
2020/12/24 05:57:27;;;;;;;2.50;2.40;;;;;;;;;;2076997;28;20240;-51
2020/12/24 05:58:27;;;;;;;2.43;2.27;;;;;;;;;;2085152;28;20176;-51
2020/12/24 05:59:28;;;;;;;2.87;2.67;;;;;;;;;;2082986;28;20637;-51
2020/12/24 06:00:41;;;;;;;2.73;2.53;;;;;;;;;;2086199;28;20192;-53
2020/12/24 06:01:56;;;;;;;2.93;2.73;;;;;;;;;;2079578;28;20192;-59
2020/12/24 06:03:08;;;;;;;3.03;2.83;;;;;;;;;;2072945;28;20242;-57
2020/12/24 06:04:09;;;;;;;2.40;2.30;;;;;;;;;;2069216;28;20178;-56
2020/12/24 06:05:11;;;;;;;2.77;2.67;;;;;;;;;;2067459;28;20790;-50